Time;durP1;ratioP1;P1;durP2;ratioP2;P2;SDS_P1;SDS_P2;PMS_P1;PMS_P2;Temp;Humidity;BMP_temperature;BMP_pressure;BME280_temperature;BME280_humidity;BME280_pressure;Samples;Min_cycle;Max_cycle;Signal;HPM_P1;HPM_P2
2023/03/04 00:02:05;;;;;;;0.50;0.50;;;;;;;5.49;100.00;97006.09;4985331;28;20532;-58
2023/03/04 00:04:31;;;;;;;0.50;0.50;;;;;;;5.49;100.00;96994.28;4983843;28;20057;-64
2023/03/04 00:06:58;;;;;;;0.50;0.50;;;;;;;5.36;100.00;96982.44;4985518;28;20167;-64
2023/03/04 00:09:25;;;;;;;0.50;0.50;;;;;;;5.13;100.00;96937.31;4985124;28;20051;-64
2023/03/04 00:11:51;;;;;;;0.50;0.50;;;;;;;4.91;100.00;96881.97;4985578;28;20524;-58
2023/03/04 00:14:18;;;;;;;0.40;0.40;;;;;;;5.44;100.00;96969.75;4999898;28;20057;-63
2023/03/04 00:16:45;;;;;;;0.50;0.50;;;;;;;5.46;100.00;96992.22;5000035;28;20549;-64
2023/03/04 00:19:11;;;;;;;0.50;0.50;;;;;;;5.30;100.00;96980.25;4985513;28;20054;-56
2023/03/04 00:21:38;;;;;;;0.50;0.50;;;;;;;4.72;100.00;96955.75;4985029;28;20488;-64
2023/03/04 00:24:05;;;;;;;0.50;0.50;;;;;;;5.35;100.00;96997.34;4984960;28;20494;-56
2023/03/04 00:26:32;;;;;;;0.50;0.50;;;;;;;5.32;100.00;97005.44;4983599;28;20087;-64
2023/03/04 00:28:59;;;;;;;0.60;0.60;;;;;;;5.29;100.00;96984.16;4984936;28;20054;-57
2023/03/04 00:31:25;;;;;;;0.50;0.50;;;;;;;5.27;100.00;96975.44;4984854;28;20696;-63
2023/03/04 00:33:52;;;;;;;0.50;0.50;;;;;;;5.18;100.00;96983.78;4984517;28;20124;-57
2023/03/04 00:36:19;;;;;;;0.50;0.50;;;;;;;5.11;100.00;96977.19;4985149;28;20046;-63
2023/03/04 00:38:45;;;;;;;0.50;0.50;;;;;;;5.22;100.00;96983.88;4983351;28;20061;-56
2023/03/04 00:41:12;;;;;;;0.50;0.50;;;;;;;5.16;100.00;96985.22;4984826;28;20137;-57
2023/03/04 00:43:38;;;;;;;0.50;0.50;;;;;;;4.82;100.00;96956.13;4984263;28;20050;-63
2023/03/04 00:46:05;;;;;;;0.47;0.47;;;;;;;1.67;100.00;96449.16;4984605;28;20137;-63
2023/03/04 00:48:32;;;;;;;0.50;0.50;;;;;;;5.06;100.00;96977.44;4984626;28;20050;-56
2023/03/04 00:50:59;;;;;;;0.50;0.50;;;;;;;4.95;100.00;96984.47;4984777;28;20639;-63
2023/03/04 00:53:26;;;;;;;0.50;0.50;;;;;;;4.68;100.00;97003.06;4984540;28;20584;-57
2023/03/04 00:55:52;;;;;;;0.40;0.40;;;;;;;4.73;100.00;96987.56;4985019;28;20086;-56
2023/03/04 00:58:19;;;;;;;0.40;0.40;;;;;;;4.90;100.00;96990.94;4984644;28;20050;-63
2023/03/04 01:00:45;;;;;;;0.50;0.50;;;;;;;4.94;100.00;96988.34;4984369;28;20092;-64
2023/03/04 01:03:12;;;;;;;0.50;0.50;;;;;;;4.93;100.00;96971.09;4982297;28;20125;-57
2023/03/04 01:05:39;;;;;;;0.47;0.47;;;;;;;4.58;100.00;96915.66;4986370;28;20582;-56
2023/03/04 01:08:05;;;;;;;0.50;0.50;;;;;;;4.90;100.00;96981.94;4987124;28;20545;-57
2023/03/04 01:10:32;;;;;;;0.50;0.50;;;;;;;4.69;100.00;96979.19;4986110;28;20050;-57
2023/03/04 01:12:59;;;;;;;0.50;0.50;;;;;;;4.74;100.00;96978.16;4987642;28;20510;-58
2023/03/04 01:15:26;;;;;;;0.50;0.50;;;;;;;4.37;100.00;96909.41;4986989;28;20050;-63
2023/03/04 01:17:53;;;;;;;0.40;0.40;;;;;;;4.47;100.00;96957.56;4988533;28;20055;-56
2023/03/04 01:20:20;;;;;;;0.40;0.40;;;;;;;4.30;100.00;96936.53;4986954;28;20530;-64
2023/03/04 01:22:47;;;;;;;0.50;0.50;;;;;;;4.62;100.00;96976.16;4988975;28;20743;-64
2023/03/04 01:25:13;;;;;;;0.40;0.40;;;;;;;4.58;100.00;96965.03;4987990;28;20065;-64
2023/03/04 01:27:40;;;;;;;0.50;0.50;;;;;;;4.41;100.00;96962.41;4988256;28;20121;-64
2023/03/04 01:30:07;;;;;;;0.40;0.40;;;;;;;4.30;100.00;96963.94;4987832;28;20054;-64
2023/03/04 01:32:34;;;;;;;0.40;0.40;;;;;;;4.39;100.00;96978.38;4988043;28;20057;-64
2023/03/04 01:35:01;;;;;;;0.40;0.40;;;;;;;4.28;100.00;96959.94;4986307;28;20520;-65
2023/03/04 01:37:27;;;;;;;0.40;0.40;;;;;;;3.44;100.00;96842.28;4988571;28;20054;-65
2023/03/04 01:39:54;;;;;;;0.50;0.50;;;;;;;4.38;100.00;96973.25;4986434;28;20506;-59
2023/03/04 01:42:23;;;;;;;0.43;0.43;;;;;;;4.19;100.00;96946.28;4988234;28;20089;-65
2023/03/04 01:44:51;;;;;;;0.50;0.50;;;;;;;4.36;100.00;96981.81;4987927;28;20476;-64
2023/03/04 01:47:18;;;;;;;0.50;0.50;;;;;;;4.41;100.00;96965.16;4987600;28;20054;-59
2023/03/04 01:49:50;;;;;;;0.40;0.40;;;;;;;3.64;100.00;96841.53;4986367;28;20058;-64
2023/03/04 01:52:16;;;;;;;0.50;0.50;;;;;;;3.65;100.00;96897.88;4986413;28;20137;-57
2023/03/04 01:54:43;;;;;;;0.40;0.40;;;;;;;4.17;100.00;96975.94;4987448;28;20531;-64
2023/03/04 01:57:22;;;;;;;0.50;0.50;;;;;;;4.16;100.00;96957.91;4987911;28;20052;-66
2023/03/04 02:00:18;;;;;;;0.50;0.50;;;;;;;4.10;100.00;96963.91;4986348;28;20085;-57
2023/03/04 02:02:46;;;;;;;0.40;0.40;;;;;;;3.00;100.00;96853.72;4987602;28;20081;-62
2023/03/04 02:05:13;;;;;;;0.40;0.40;;;;;;;3.82;100.00;96958.09;4987313;28;20109;-60
2023/03/04 02:07:41;;;;;;;0.40;0.40;;;;;;;3.76;100.00;96970.34;4987805;28;20050;-65
2023/03/04 02:10:09;;;;;;;0.43;0.43;;;;;;;3.76;100.00;96953.91;4987663;28;20058;-64
2023/03/04 02:12:37;;;;;;;0.40;0.40;;;;;;;3.77;100.00;96955.53;4987439;28;20050;-57
2023/03/04 02:15:04;;;;;;;0.43;0.43;;;;;;;3.50;100.00;96928.56;4978273;28;20270;-64
2023/03/04 02:17:32;;;;;;;0.40;0.40;;;;;;;3.86;100.00;96959.03;4967680;28;20410;-65
2023/03/04 02:20:04;;;;;;;0.50;0.50;;;;;;;3.92;100.00;96963.19;4967709;28;20082;-57
2023/03/04 02:22:36;;;;;;;0.50;0.50;;;;;;;3.96;100.00;96963.31;4982605;28;20128;-57
2023/03/04 02:25:09;;;;;;;0.40;0.40;;;;;;;1.66;100.00;96592.22;4967746;28;20105;-57
2023/03/04 02:27:36;;;;;;;0.40;0.40;;;;;;;3.99;100.00;96952.53;4967728;28;20093;-65
2023/03/04 02:30:03;;;;;;;0.50;0.50;;;;;;;3.94;100.00;96911.59;4967514;28;20160;-65
2023/03/04 02:32:30;;;;;;;0.40;0.40;;;;;;;4.28;100.00;96960.72;4967227;28;20062;-65
2023/03/04 02:34:57;;;;;;;0.50;0.50;;;;;;;4.28;100.00;96965.41;4967432;28;20526;-57
2023/03/04 02:37:24;;;;;;;0.50;0.50;;;;;;;4.25;100.00;96960.59;4982328;28;20433;-58
2023/03/04 02:39:50;;;;;;;0.40;0.40;;;;;;;3.59;100.00;96876.50;4967050;28;20055;-65
2023/03/04 02:42:17;;;;;;;0.40;0.40;;;;;;;4.30;100.00;96963.94;4967294;28;20097;-58
2023/03/04 02:44:47;;;;;;;0.40;0.40;;;;;;;4.06;100.00;96911.69;4967191;28;20051;-59
2023/03/04 02:47:17;;;;;;;0.50;0.50;;;;;;;4.50;100.00;96963.16;4967636;28;20047;-65
2023/03/04 02:49:43;;;;;;;0.50;0.50;;;;;;;3.86;100.00;96912.44;4967186;28;20521;-57
2023/03/04 02:52:17;;;;;;;0.40;0.40;;;;;;;4.43;100.00;96982.09;4966985;28;20066;-65
2023/03/04 02:54:44;;;;;;;0.50;0.50;;;;;;;4.26;100.00;96941.09;4982143;28;20046;-57
2023/03/04 02:57:11;;;;;;;0.43;0.43;;;;;;;4.59;100.00;96988.59;4967513;28;20082;-58
2023/03/04 02:59:39;;;;;;;0.50;0.50;;;;;;;4.77;100.00;96972.00;4968491;28;20137;-65
2023/03/04 03:02:07;;;;;;;0.50;0.50;;;;;;;4.69;100.00;96966.25;4986621;28;20054;-65
2023/03/04 03:04:36;;;;;;;0.50;0.50;;;;;;;4.73;99.75;96969.13;4986677;28;20129;-57
2023/03/04 03:07:03;;;;;;;0.50;0.50;;;;;;;4.67;99.21;96940.28;4986488;28;20153;-58
2023/03/04 03:09:30;;;;;;;0.50;0.50;;;;;;;4.92;97.32;96961.22;4986318;28;20603;-64
2023/03/04 03:11:56;;;;;;;0.50;0.50;;;;;;;4.61;95.26;96911.47;4984851;28;20517;-64
2023/03/04 03:14:23;;;;;;;0.50;0.50;;;;;;;4.05;96.03;96830.63;4986111;28;20046;-59
2023/03/04 03:16:50;;;;;;;0.50;0.50;;;;;;;4.71;98.74;96967.88;4986075;28;20112;-64
2023/03/04 03:19:16;;;;;;;0.45;0.45;;;;;;;4.46;99.75;96951.25;4986127;28;20086;-58
2023/03/04 03:21:43;;;;;;;0.50;0.50;;;;;;;4.63;100.00;96956.63;4985563;28;20575;-56
2023/03/04 03:24:09;;;;;;;0.50;0.50;;;;;;;4.54;100.00;96955.88;4984530;28;20053;-57
2023/03/04 03:26:36;;;;;;;0.50;0.50;;;;;;;4.07;100.00;96866.72;4973751;28;20055;-57
2023/03/04 03:29:03;;;;;;;0.50;0.50;;;;;;;4.74;100.00;96967.19;4966789;28;20086;-64
2023/03/04 03:31:29;;;;;;;0.50;0.50;;;;;;;4.74;100.00;96967.19;4966926;28;20540;-64
2023/03/04 03:33:56;;;;;;;0.50;0.50;;;;;;;4.29;100.00;96896.56;4966298;28;20109;-65
2023/03/04 03:36:23;;;;;;;0.50;0.50;;;;;;;4.71;100.00;96973.34;4966188;28;20513;-64
2023/03/04 03:38:49;;;;;;;0.50;0.50;;;;;;;4.75;100.00;96979.78;4966617;28;20506;-58
2023/03/04 03:41:16;;;;;;;0.47;0.47;;;;;;;4.78;100.00;96973.59;4966372;28;20063;-64
2023/03/04 03:43:42;;;;;;;0.50;0.50;;;;;;;4.11;100.00;96906.00;4966311;28;20055;-57
2023/03/04 03:46:09;;;;;;;0.50;0.50;;;;;;;4.68;100.00;96985.00;4965840;28;20141;-63
2023/03/04 03:48:36;;;;;;;0.57;0.57;;;;;;;4.78;100.00;96968.13;4966308;28;20422;-64
2023/03/04 03:51:02;;;;;;;0.52;0.52;;;;;;;4.86;100.00;96978.22;4965881;28;20505;-58
2023/03/04 03:53:29;;;;;;;0.50;0.50;;;;;;;5.04;100.00;96965.97;4966101;28;20117;-64
2023/03/04 03:55:56;;;;;;;0.50;0.50;;;;;;;5.16;100.00;96974.25;4965818;28;20097;-64
2023/03/04 03:58:22;;;;;;;0.50;0.50;;;;;;;5.27;99.01;96969.94;4997057;28;20062;-58
2023/03/04 04:00:49;;;;;;;0.50;0.50;;;;;;;5.17;96.79;96942.94;4975420;28;20062;-57
2023/03/04 04:03:16;;;;;;;0.50;0.50;;;;;;;5.32;96.40;96977.97;4983951;28;20081;-65
2023/03/04 04:05:42;;;;;;;0.50;0.50;;;;;;;5.29;97.01;96973.97;4985341;28;20050;-56
2023/03/04 04:08:14;;;;;;;0.50;0.50;;;;;;;2.71;97.55;96566.53;4985204;28;20536;-59
2023/03/04 04:10:41;;;;;;;0.50;0.50;;;;;;;5.30;98.08;96958.28;4984009;28;20138;-64
2023/03/04 04:13:09;;;;;;;0.55;0.55;;;;;;;5.39;96.76;96967.25;4985092;28;20109;-57
2023/03/04 04:15:37;;;;;;;0.60;0.60;;;;;;;5.41;97.46;96964.97;4983917;28;20129;-64
2023/03/04 04:18:04;;;;;;;0.50;0.50;;;;;;;5.03;97.21;96898.47;4983773;28;20054;-65
2023/03/04 04:20:31;;;;;;;0.50;0.50;;;;;;;5.52;96.48;96966.13;4985382;28;20054;-57
2023/03/04 04:22:58;;;;;;;0.50;0.50;;;;;;;5.48;96.11;96971.53;4999844;28;20117;-56
2023/03/04 04:25:25;;;;;;;0.50;0.50;;;;;;;5.53;95.09;96973.25;4985111;28;20050;-65
2023/03/04 04:27:51;;;;;;;0.50;0.50;;;;;;;4.87;95.89;96872.84;4983835;28;20101;-58
2023/03/04 04:30:18;;;;;;;0.50;0.50;;;;;;;5.16;96.06;96924.84;4984790;28;20088;-65
2023/03/04 04:32:44;;;;;;;0.50;0.50;;;;;;;5.62;95.30;96974.75;4973591;28;20062;-64
2023/03/04 04:35:11;;;;;;;0.50;0.50;;;;;;;5.49;95.67;96977.78;4984557;28;20334;-64
2023/03/04 04:37:38;;;;;;;0.50;0.50;;;;;;;5.27;97.04;96964.47;4984554;28;20054;-64
2023/03/04 04:40:05;;;;;;;0.50;0.50;;;;;;;5.16;97.59;96935.81;4982754;28;20146;-57
2023/03/04 04:42:32;;;;;;;0.52;0.52;;;;;;;4.81;97.72;96899.66;4983616;28;20062;-56
2023/03/04 04:44:58;;;;;;;0.50;0.50;;;;;;;5.28;98.31;96960.59;4983725;28;20096;-57
2023/03/04 04:47:25;;;;;;;0.52;0.52;;;;;;;5.16;98.35;96941.31;4999179;28;20054;-63
2023/03/04 04:49:51;;;;;;;0.50;0.50;;;;;;;5.07;98.38;96937.84;4984729;28;20497;-58
2023/03/04 04:52:18;;;;;;;0.50;0.50;;;;;;;4.94;98.01;96922.47;4984079;28;20054;-59
2023/03/04 04:54:45;;;;;;;0.60;0.60;;;;;;;5.45;97.49;96983.19;4984603;28;20058;-57
2023/03/04 04:57:11;;;;;;;0.50;0.50;;;;;;;5.38;97.11;96990.34;4966674;28;20469;-57
2023/03/04 04:59:38;;;;;;;0.50;0.50;;;;;;;5.44;96.63;96997.22;4979502;28;20517;-64
2023/03/04 05:02:04;;;;;;;0.60;0.60;;;;;;;5.48;96.08;96995.44;4982415;28;20461;-63
2023/03/04 05:04:31;;;;;;;0.50;0.50;;;;;;;5.35;94.88;96971.81;4983036;28;20054;-56
2023/03/04 05:06:58;;;;;;;0.57;0.57;;;;;;;5.04;95.52;96922.06;4970038;28;20181;-56
2023/03/04 05:09:24;;;;;;;0.60;0.60;;;;;;;5.55;96.30;97004.72;4964999;28;20602;-64
2023/03/04 05:11:51;;;;;;;0.50;0.50;;;;;;;5.31;96.52;96955.19;4965375;28;20605;-57
2023/03/04 05:14:18;;;;;;;0.50;0.50;;;;;;;5.69;94.98;97001.69;4964793;28;20556;-63
2023/03/04 05:16:44;;;;;;;0.60;0.60;;;;;;;5.75;95.68;97001.09;4979725;28;20050;-59
2023/03/04 05:19:11;;;;;;;0.55;0.55;;;;;;;5.71;95.49;97002.13;4964820;28;20047;-57
2023/03/04 05:21:38;;;;;;;0.50;0.50;;;;;;;5.77;95.10;97003.53;4965209;28;20070;-64
2023/03/04 05:24:05;;;;;;;0.60;0.60;;;;;;;5.52;94.97;96977.94;4965066;28;20058;-56
2023/03/04 05:26:32;;;;;;;0.50;0.50;;;;;;;5.83;94.70;97015.94;4965252;28;20046;-57
2023/03/04 05:28:58;;;;;;;0.50;0.50;;;;;;;5.78;94.96;97002.38;4979401;28;20101;-57
2023/03/04 05:31:25;;;;;;;0.50;0.50;;;;;;;5.80;95.53;97006.38;4979502;28;20055;-65
2023/03/04 05:33:52;;;;;;;0.50;0.50;;;;;;;5.76;95.67;97012.91;4979118;28;20424;-65
2023/03/04 05:36:19;;;;;;;0.60;0.60;;;;;;;5.87;95.46;97022.34;4965340;28;20046;-65
2023/03/04 05:38:46;;;;;;;0.50;0.50;;;;;;;5.97;94.30;97019.16;4964946;28;20097;-65
2023/03/04 05:41:12;;;;;;;0.52;0.52;;;;;;;5.91;95.21;97015.03;4965213;28;20433;-65
2023/03/04 05:43:41;;;;;;;0.50;0.50;;;;;;;5.93;94.71;97005.31;4964715;28;20101;-58
2023/03/04 05:46:13;;;;;;;0.50;0.50;;;;;;;6.04;95.67;97011.16;4979720;28;20440;-57
2023/03/04 05:48:39;;;;;;;0.60;0.60;;;;;;;6.13;96.02;97011.88;4964886;28;20063;-64
2023/03/04 05:51:06;;;;;;;0.50;0.50;;;;;;;6.19;95.13;97005.00;4964802;28;20585;-57
2023/03/04 05:53:35;;;;;;;0.60;0.60;;;;;;;6.06;95.15;97014.38;4967872;28;20086;-65
2023/03/04 05:56:10;;;;;;;0.50;0.50;;;;;;;6.11;95.19;97003.16;4982826;28;20054;-64
2023/03/04 05:58:36;;;;;;;0.50;0.50;;;;;;;5.28;95.38;96883.69;4966655;28;20071;-65
2023/03/04 06:01:04;;;;;;;0.50;0.50;;;;;;;5.90;95.09;96999.69;4973254;28;20051;-64
2023/03/04 06:03:31;;;;;;;0.57;0.57;;;;;;;5.94;95.48;97028.09;4987138;28;20105;-65
2023/03/04 06:05:58;;;;;;;0.50;0.50;;;;;;;5.79;95.07;96976.50;4987264;28;20061;-64
2023/03/04 06:08:26;;;;;;;0.60;0.60;;;;;;;6.15;94.03;97017.81;4987556;28;20096;-64
2023/03/04 06:10:54;;;;;;;0.60;0.60;;;;;;;6.07;94.24;96993.97;4986936;28;20148;-57
2023/03/04 06:13:21;;;;;;;0.50;0.50;;;;;;;6.25;94.71;97022.06;4986857;28;20062;-59
2023/03/04 06:15:56;;;;;;;0.50;0.50;;;;;;;5.83;95.25;96961.75;4987151;28;20062;-64
2023/03/04 06:18:24;;;;;;;0.60;0.60;;;;;;;6.37;94.83;97020.09;4986954;28;20541;-64
2023/03/04 06:20:56;;;;;;;0.50;0.50;;;;;;;6.23;93.64;96985.88;4985873;28;20062;-64
2023/03/04 06:23:22;;;;;;;0.60;0.60;;;;;;;6.07;92.57;96958.22;4987309;28;20062;-58
2023/03/04 06:25:54;;;;;;;0.52;0.52;;;;;;;6.50;94.15;97018.16;4987387;28;20862;-65
2023/03/04 06:28:21;;;;;;;0.60;0.60;;;;;;;6.25;94.30;96951.34;4987250;28;20084;-65
2023/03/04 06:30:50;;;;;;;0.50;0.50;;;;;;;6.37;93.82;96945.84;4986683;28;20046;-59
2023/03/04 06:33:17;;;;;;;0.60;0.60;;;;;;;6.97;93.66;97006.28;4986099;28;20168;-58
2023/03/04 06:35:43;;;;;;;0.60;0.60;;;;;;;7.18;92.71;97006.91;4986545;28;20500;-57
2023/03/04 06:38:10;;;;;;;0.70;0.70;;;;;;;7.63;91.97;97018.44;4986870;28;20133;-58
2023/03/04 06:40:37;;;;;;;0.60;0.60;;;;;;;7.79;89.56;97015.75;4986790;28;20058;-63
2023/03/04 06:43:03;;;;;;;0.60;0.60;;;;;;;7.97;89.25;97021.72;4982141;28;20086;-57
2023/03/04 06:45:30;;;;;;;0.60;0.60;;;;;;;8.05;87.47;97024.31;4966915;28;20047;-63
2023/03/04 06:47:57;;;;;;;0.60;0.60;;;;;;;7.93;86.27;97004.28;4967901;28;20121;-57
2023/03/04 06:50:23;;;;;;;0.60;0.60;;;;;;;8.28;84.75;97021.78;4966765;28;20118;-58
2023/03/04 06:52:50;;;;;;;0.60;0.60;;;;;;;8.24;84.19;97023.63;4966797;28;20059;-57
2023/03/04 06:55:17;;;;;;;0.70;0.70;;;;;;;8.18;85.21;97033.31;4966729;28;20085;-58
2023/03/04 06:57:43;;;;;;;0.70;0.70;;;;;;;8.12;86.52;97023.69;4967561;28;20517;-57
2023/03/04 07:00:13;;;;;;;0.60;0.60;;;;;;;8.34;86.83;97025.88;4966924;28;20158;-64
2023/03/04 07:02:40;;;;;;;0.70;0.70;;;;;;;7.96;85.99;97031.16;4983869;28;20136;-63
2023/03/04 07:05:09;;;;;;;0.60;0.60;;;;;;;8.20;85.96;97026.28;4986222;28;20066;-63
2023/03/04 07:07:36;;;;;;;0.60;0.60;;;;;;;8.24;85.78;97031.91;4986505;28;20054;-64
2023/03/04 07:10:03;;;;;;;0.60;0.60;;;;;;;8.17;85.59;97026.19;4984793;28;20120;-64
2023/03/04 07:12:30;;;;;;;0.65;0.65;;;;;;;8.13;85.82;97023.34;4986297;28;20532;-63
2023/03/04 07:14:57;;;;;;;0.70;0.70;;;;;;;7.95;87.01;97024.03;4986385;28;20536;-65
2023/03/04 07:17:23;;;;;;;0.60;0.60;;;;;;;8.17;85.81;97037.22;4986677;28;20699;-66
2023/03/04 07:19:50;;;;;;;0.63;0.63;;;;;;;8.34;85.04;97012.06;4984460;28;20088;-65
2023/03/04 07:22:17;;;;;;;0.70;0.70;;;;;;;8.55;83.92;97034.69;4986291;28;20057;-58
2023/03/04 07:24:43;;;;;;;0.70;0.70;;;;;;;8.07;83.79;96928.22;4986104;28;20077;-57
2023/03/04 07:27:10;;;;;;;0.63;0.63;;;;;;;8.58;85.15;97020.16;4984406;28;20058;-60
2023/03/04 07:29:37;;;;;;;0.80;0.80;;;;;;;8.66;84.50;97016.41;4985535;28;20054;-65
2023/03/04 07:32:07;;;;;;;0.70;0.70;;;;;;;8.76;85.12;97019.41;4985540;28;20070;-60
2023/03/04 07:34:34;;;;;;;0.70;0.70;;;;;;;9.00;83.64;96993.53;4984452;28;20054;-65
2023/03/04 07:37:01;;;;;;;0.80;0.80;;;;;;;9.24;83.66;96996.03;4985739;28;20054;-64
2023/03/04 07:39:27;;;;;;;0.80;0.80;;;;;;;9.32;82.65;97022.66;4971338;28;20055;-57
2023/03/04 07:41:54;;;;;;;0.70;0.70;;;;;;;9.46;81.11;97016.59;4965609;28;20047;-59
2023/03/04 07:44:20;;;;;;;0.80;0.80;;;;;;;9.55;80.08;97018.00;4966217;28;20087;-64
2023/03/04 07:46:47;;;;;;;0.80;0.80;;;;;;;9.41;80.20;97020.47;4965986;28;20137;-59
2023/03/04 07:49:14;;;;;;;0.80;0.80;;;;;;;9.02;80.26;96958.84;4966248;28;20387;-57
2023/03/04 07:51:40;;;;;;;0.80;0.80;;;;;;;9.03;81.62;96981.75;4980111;28;20082;-65
2023/03/04 07:54:09;;;;;;;0.70;0.70;;;;;;;9.08;81.42;96962.94;4966175;28;20050;-57
2023/03/04 07:56:35;;;;;;;0.80;0.80;;;;;;;9.43;80.56;97011.81;4965660;28;20113;-58
2023/03/04 07:59:02;;;;;;;0.73;0.73;;;;;;;9.61;80.39;97008.22;4966078;28;20051;-58
2023/03/04 08:01:32;;;;;;;0.80;0.80;;;;;;;9.75;78.34;96996.66;4971822;28;20089;-65
2023/03/04 08:03:59;;;;;;;0.70;0.70;;;;;;;9.66;77.43;96973.97;4985516;28;20058;-66
2023/03/04 08:06:27;;;;;;;0.73;0.73;;;;;;;9.80;78.70;96979.78;4985031;28;20050;-58
2023/03/04 08:08:59;;;;;;;0.77;0.77;;;;;;;10.14;79.05;97010.09;4985069;28;20104;-57
2023/03/04 08:11:28;;;;;;;0.80;0.80;;;;;;;10.35;79.52;97006.91;4999700;28;20072;-64
2023/03/04 08:13:55;;;;;;;0.80;0.80;;;;;;;10.25;78.87;97016.63;4984712;28;20170;-57
2023/03/04 08:16:22;;;;;;;0.80;0.80;;;;;;;10.39;79.28;97008.56;4982822;28;20540;-58
2023/03/04 08:18:53;;;;;;;0.80;0.80;;;;;;;10.51;77.53;97013.88;4984818;28;20042;-65
2023/03/04 08:21:22;;;;;;;0.80;0.80;;;;;;;10.12;77.24;96951.53;4984479;28;20086;-65
2023/03/04 08:23:50;;;;;;;0.80;0.80;;;;;;;10.78;76.29;97016.69;4983509;28;20050;-65
2023/03/04 08:26:19;;;;;;;0.80;0.80;;;;;;;10.85;75.27;97005.72;4985919;28;20054;-59
2023/03/04 08:28:46;;;;;;;0.80;0.80;;;;;;;10.80;73.60;97003.25;4982893;28;20053;-60
2023/03/04 08:31:15;;;;;;;0.80;0.80;;;;;;;10.15;74.36;96873.28;4976915;28;20486;-60
2023/03/04 08:33:42;;;;;;;0.90;0.90;;;;;;;8.70;74.95;96636.25;4981639;28;20502;-61
2023/03/04 08:36:12;;;;;;;0.90;0.90;;;;;;;11.09;74.52;96983.91;4982330;28;20539;-59
2023/03/04 08:38:39;;;;;;;0.85;0.85;;;;;;;10.79;75.82;96966.47;4984006;28;20145;-62
2023/03/04 08:41:05;;;;;;;0.88;0.88;;;;;;;10.95;76.19;97005.06;4985520;28;20045;-61
2023/03/04 08:43:33;;;;;;;0.80;0.80;;;;;;;10.92;76.02;96953.19;4982432;28;20057;-57
2023/03/04 08:46:00;;;;;;;0.90;0.90;;;;;;;11.23;75.22;96999.94;4986293;28;20476;-59
2023/03/04 08:48:27;;;;;;;0.90;0.90;;;;;;;10.73;75.65;96968.72;4981676;28;20577;-61
2023/03/04 08:50:53;;;;;;;0.80;0.80;;;;;;;10.98;75.40;96979.38;4983872;28;20524;-60
2023/03/04 08:53:21;;;;;;;0.90;0.90;;;;;;;11.31;75.73;96979.44;4982326;28;20133;-60
2023/03/04 08:55:49;;;;;;;0.90;0.90;;;;;;;11.37;74.40;96922.47;4981782;28;20038;-62
2023/03/04 08:58:16;;;;;;;0.90;0.90;;;;;;;10.87;73.29;96875.91;4982814;28;20104;-62
2023/03/04 09:00:47;;;;;;;0.90;0.90;;;;;;;12.06;71.86;96985.53;4982965;28;20058;-60
2023/03/04 09:03:14;;;;;;;0.90;0.90;;;;;;;11.86;71.67;96912.75;4982101;28;20046;-62
2023/03/04 09:05:43;;;;;;;0.90;0.90;;;;;;;11.42;72.83;96991.47;4983192;28;20061;-63
2023/03/04 09:08:10;;;;;;;0.80;0.80;;;;;;;10.54;73.94;96924.50;4981736;28;20402;-58
2023/03/04 09:10:36;;;;;;;0.90;0.90;;;;;;;10.51;76.85;96983.41;4982294;28;20092;-60
2023/03/04 09:13:03;;;;;;;0.90;0.90;;;;;;;10.42;76.10;96969.03;4980773;28;20058;-60
2023/03/04 09:15:30;;;;;;;0.88;0.88;;;;;;;10.06;74.93;96786.13;4974039;28;20054;-59
2023/03/04 09:17:56;;;;;;;0.90;0.90;;;;;;;11.35;73.47;96903.44;4983643;28;20433;-59
2023/03/04 09:20:23;;;;;;;1.00;1.00;;;;;;;11.13;73.80;96972.88;4982109;28;20097;-60
2023/03/04 09:22:50;;;;;;;0.80;0.80;;;;;;;10.31;79.13;96973.59;4980328;28;20061;-60
2023/03/04 09:25:16;;;;;;;0.73;0.73;;;;;;;10.17;78.47;96992.75;4998048;28;20100;-60
2023/03/04 09:27:43;;;;;;;0.80;0.80;;;;;;;10.72;76.50;96918.47;4989057;28;20053;-60
2023/03/04 09:30:11;;;;;;;0.90;0.90;;;;;;;11.72;73.09;96972.84;4985216;28;20054;-60
2023/03/04 09:32:38;;;;;;;0.98;0.98;;;;;;;11.67;72.54;96926.00;4985293;28;20060;-58
2023/03/04 09:35:06;;;;;;;1.00;1.00;;;;;;;11.44;73.91;96972.50;4986732;28;20077;-59
2023/03/04 09:37:33;;;;;;;0.80;0.80;;;;;;;11.21;74.78;96930.19;4985072;28;20056;-67
2023/03/04 09:39:59;;;;;;;0.82;0.82;;;;;;;11.67;73.52;96975.97;5007425;28;20549;-60
2023/03/04 09:42:43;;;;;;;0.90;0.90;;;;;;;11.03;71.98;96862.66;5007602;28;20103;-60
2023/03/04 09:45:17;;;;;;;0.85;0.85;;;;;;;10.47;76.24;96918.88;5005607;28;20535;-58
2023/03/04 09:47:45;;;;;;;0.90;0.90;;;;;;;10.67;78.40;96956.38;5014294;28;20128;-57
2023/03/04 09:50:13;;;;;;;0.95;0.95;;;;;;;11.45;75.37;96941.59;5006677;28;20496;-61
2023/03/04 09:53:01;;;;;;;1.00;1.00;;;;;;;12.15;73.80;96952.69;5011013;28;20050;-62
2023/03/04 09:55:40;;;;;;;0.90;0.90;;;;;;;11.50;71.64;96948.78;4994134;28;20050;-60
2023/03/04 09:58:32;;;;;;;0.95;0.95;;;;;;;10.19;77.80;96889.97;4999580;28;20119;-59
2023/03/04 10:00:59;;;;;;;0.80;0.80;;;;;;;10.88;74.68;96944.81;5006442;28;20085;-61
2023/03/04 10:03:47;;;;;;;0.90;0.90;;;;;;;11.01;75.42;96942.59;5006319;28;20104;-63
2023/03/04 10:06:20;;;;;;;0.90;0.90;;;;;;;9.10;73.82;96584.06;5006561;28;20141;-66
2023/03/04 10:09:01;;;;;;;0.80;0.80;;;;;;;11.57;72.67;96926.69;5006360;28;20077;-60
2023/03/04 10:11:36;;;;;;;0.90;0.90;;;;;;;11.40;72.95;96928.06;5006921;28;20132;-66
2023/03/04 10:14:28;;;;;;;0.82;0.82;;;;;;;10.25;77.83;96975.09;5004173;28;20141;-63
2023/03/04 10:17:06;;;;;;;0.80;0.80;;;;;;;10.46;74.82;96900.66;4986424;28;20445;-65
2023/03/04 10:19:54;;;;;;;0.90;0.90;;;;;;;11.80;74.54;96924.56;5005891;28;20049;-62
2023/03/04 10:22:27;;;;;;;0.90;0.90;;;;;;;12.44;72.24;96921.19;5005962;28;20092;-60
2023/03/04 10:24:56;;;;;;;0.95;0.95;;;;;;;11.94;71.63;96883.06;5006224;28;20073;-61
2023/03/04 10:27:24;;;;;;;0.80;0.80;;;;;;;11.60;73.42;96898.19;5005818;28;20058;-64
2023/03/04 10:29:51;;;;;;;0.90;0.90;;;;;;;12.50;69.50;96914.09;5007515;28;20057;-59
2023/03/04 10:32:19;;;;;;;1.00;1.00;;;;;;;12.59;66.48;96856.22;5005240;28;20139;-59
2023/03/04 10:34:46;;;;;;;0.93;0.93;;;;;;;11.98;67.34;96817.31;5003885;28;20119;-63
2023/03/04 10:37:13;;;;;;;0.90;0.90;;;;;;;12.25;70.04;96852.00;4996599;28;20535;-61
2023/03/04 10:39:42;;;;;;;1.13;1.13;;;;;;;13.27;67.46;96903.47;4998999;28;20054;-62
2023/03/04 10:42:14;;;;;;;1.10;1.10;;;;;;;13.38;64.47;96893.16;5002075;28;20042;-60
2023/03/04 10:44:52;;;;;;;1.10;1.10;;;;;;;13.10;65.21;96908.94;5004794;28;20473;-61
2023/03/04 10:47:18;;;;;;;1.20;1.20;;;;;;;13.34;63.92;96886.00;5005538;28;20042;-60
2023/03/04 10:49:57;;;;;;;1.10;1.10;;;;;;;11.86;65.77;96801.72;5003165;28;20050;-59
2023/03/04 10:52:23;;;;;;;1.00;1.00;;;;;;;12.26;65.71;96886.94;5003733;28;20058;-64
2023/03/04 10:54:56;;;;;;;1.00;1.00;;;;;;;11.70;69.01;96887.22;5005313;28;20057;-60
2023/03/04 10:57:33;;;;;;;0.90;0.90;;;;;;;11.72;68.47;96792.50;5018011;28;20429;-66
2023/03/04 11:00:03;;;;;;;0.90;0.90;;;;;;;11.87;66.78;96874.69;5022502;28;20568;-59
2023/03/04 11:02:34;;;;;;;0.98;0.98;;;;;;;11.75;68.40;96786.97;5017449;28;20115;-60
2023/03/04 11:05:18;;;;;;;1.00;1.00;;;;;;;12.40;65.36;96867.59;5011587;28;20179;-58
2023/03/04 11:07:47;;;;;;;;;;;;;;;12.20;66.74;96860.69;5021256;28;20432;-60
2023/03/04 11:10:35;;;;;;;0.90;0.90;;;;;;;12.32;65.30;96845.69;5021198;28;19944;-60
2023/03/04 11:13:08;;;;;;;1.00;1.00;;;;;;;12.72;64.32;96854.69;5021695;28;20068;-62
2023/03/04 11:15:53;;;;;;;1.00;1.00;;;;;;;12.43;65.83;96847.38;5000072;28;20141;-63
2023/03/04 11:18:50;;;;;;;1.00;1.00;;;;;;;12.45;63.64;96828.34;5026512;28;20049;-64
2023/03/04 11:21:19;;;;;;;;;;;;;;;12.83;62.72;96838.88;5005734;28;20045;-60
2023/03/04 11:23:51;;;;;;;1.00;1.00;;;;;;;12.52;63.84;96839.47;5005374;28;19929;-62
2023/03/04 11:26:23;;;;;;;1.00;1.00;;;;;;;12.66;63.66;96834.00;5003118;28;20046;-60
2023/03/04 11:29:16;;;;;;;1.00;1.00;;;;;;;12.89;63.09;96831.75;5005048;28;20148;-60
2023/03/04 11:31:42;;;;;;;1.00;1.00;;;;;;;12.80;63.56;96824.94;5003722;28;20688;-60
2023/03/04 11:34:30;;;;;;;0.90;0.90;;;;;;;12.49;65.49;96820.81;5004836;28;20053;-60
2023/03/04 11:37:05;;;;;;;1.02;1.02;;;;;;;12.09;66.01;96798.75;5003875;28;20050;-60
2023/03/04 11:39:50;;;;;;;1.00;1.00;;;;;;;12.09;67.90;96821.72;5005272;28;20421;-59
2023/03/04 11:42:38;;;;;;;0.90;0.90;;;;;;;12.48;66.96;96816.44;5004855;28;20096;-62
2023/03/04 11:45:13;;;;;;;1.00;1.00;;;;;;;13.02;65.52;96810.78;5017092;28;20053;-60